Time;durP1;ratioP1;P1;durP2;ratioP2;P2;SDS_P1;SDS_P2;PMS_P1;PMS_P2;Temp;Humidity;BMP_temperature;BMP_pressure;BME280_temperature;BME280_humidity;BME280_pressure;Samples;Min_cycle;Max_cycle;Signal;HPM_P1;HPM_P2
2022/11/09 00:00:05;;;;;;;5.35;2.88;;;;;;;10.21;82.26;96922.75;5047958;28;20136;-58
2022/11/09 00:02:31;;;;;;;5.43;2.83;;;;;;;10.31;81.37;96919.31;5048221;28;20056;-59
2022/11/09 00:04:58;;;;;;;5.70;2.67;;;;;;;10.42;80.79;96925.59;5048144;28;20560;-58
2022/11/09 00:07:24;;;;;;;5.97;3.05;;;;;;;10.52;79.65;96925.72;5048127;28;20049;-58
2022/11/09 00:09:51;;;;;;;5.88;3.08;;;;;;;10.61;79.13;96925.22;5047825;28;20156;-59
2022/11/09 00:12:17;;;;;;;5.43;2.55;;;;;;;10.61;79.45;96919.78;5038199;28;20054;-59
2022/11/09 00:14:44;;;;;;;6.20;3.03;;;;;;;10.52;79.88;96920.28;5028263;28;20478;-59
2022/11/09 00:17:10;;;;;;;6.15;2.90;;;;;;;10.58;79.34;96923.81;5028061;28;20501;-59
2022/11/09 00:19:37;;;;;;;8.18;2.53;;;;;;;10.62;79.04;96914.09;5039654;28;20048;-57
2022/11/09 00:22:03;;;;;;;5.88;2.60;;;;;;;10.64;79.19;96920.06;5047605;28;20136;-58
2022/11/09 00:24:30;;;;;;;5.53;2.78;;;;;;;10.60;79.09;96918.13;5047308;28;20045;-59
2022/11/09 00:26:56;;;;;;;6.85;2.85;;;;;;;10.62;79.21;96924.13;5047838;28;20072;-58
2022/11/09 00:29:22;;;;;;;5.00;2.88;;;;;;;10.63;78.74;96931.16;5047598;28;20607;-57
2022/11/09 00:31:49;;;;;;;5.97;2.70;;;;;;;10.58;79.21;96923.81;5045986;28;20132;-58
2022/11/09 00:34:15;;;;;;;9.85;2.83;;;;;;;10.58;79.17;96936.56;5047805;28;20075;-58
2022/11/09 00:36:42;;;;;;;6.25;2.97;;;;;;;10.61;78.59;96928.72;5045701;28;20047;-57
2022/11/09 00:39:08;;;;;;;6.32;2.63;;;;;;;10.60;78.89;96927.09;5046456;28;20474;-58
2022/11/09 00:41:35;;;;;;;6.18;2.90;;;;;;;10.57;79.02;96914.06;5046464;28;20041;-57
2022/11/09 00:44:01;;;;;;;6.18;2.78;;;;;;;10.58;78.95;96915.69;5046427;28;20068;-57
2022/11/09 00:46:28;;;;;;;5.35;2.50;;;;;;;10.63;78.58;96917.63;5047275;28;20499;-58
2022/11/09 00:48:55;;;;;;;6.90;2.60;;;;;;;10.74;77.78;96913.91;5048201;28;20523;-58
2022/11/09 00:51:21;;;;;;;5.75;2.70;;;;;;;10.78;77.54;96915.00;5046783;28;20052;-57
2022/11/09 00:53:52;;;;;;;3.95;2.47;;;;;;;10.75;77.44;96915.50;5045675;28;20533;-58
2022/11/09 00:56:20;;;;;;;4.43;2.80;;;;;;;10.75;77.65;96915.50;5045706;28;20532;-59
2022/11/09 00:58:46;;;;;;;6.28;2.72;;;;;;;10.75;77.48;96918.22;5045490;28;20048;-58
2022/11/09 01:01:15;;;;;;;5.35;2.70;;;;;;;10.74;78.03;96919.31;5045633;28;20128;-59
2022/11/09 01:03:44;;;;;;;4.28;2.45;;;;;;;10.72;77.96;96913.31;5045474;28;20045;-59
2022/11/09 01:06:16;;;;;;;4.93;2.65;;;;;;;10.71;78.17;96913.59;5045904;28;20134;-57
2022/11/09 01:08:43;;;;;;;5.55;2.55;;;;;;;10.66;78.59;96908.97;5047547;28;20593;-59
2022/11/09 01:11:10;;;;;;;6.38;2.90;;;;;;;10.55;79.26;96918.94;5026483;28;20047;-59
2022/11/09 01:13:38;;;;;;;5.95;2.78;;;;;;;10.52;79.49;96922.16;5027041;28;20488;-59
2022/11/09 01:16:12;;;;;;;5.50;2.60;;;;;;;10.47;79.70;96920.25;5026652;28;20029;-59
2022/11/09 01:18:39;;;;;;;4.88;2.53;;;;;;;10.48;79.79;96921.06;5027822;28;20110;-59
2022/11/09 01:21:08;;;;;;;7.18;2.80;;;;;;;10.44;80.06;96925.34;5026469;28;20120;-59
2022/11/09 01:23:36;;;;;;;4.80;2.70;;;;;;;10.50;79.52;96927.84;5026887;28;20050;-59
2022/11/09 01:26:09;;;;;;;4.20;2.35;;;;;;;10.50;79.52;96930.56;5026669;28;20121;-57
2022/11/09 01:28:36;;;;;;;6.38;2.72;;;;;;;10.45;79.95;96933.25;5025138;28;20049;-58
2022/11/09 01:31:06;;;;;;;7.45;2.88;;;;;;;10.56;79.50;96933.28;5026482;28;20108;-58
2022/11/09 01:33:32;;;;;;;5.22;2.95;;;;;;;10.68;79.09;96938.50;5028488;28;20485;-58
2022/11/09 01:36:03;;;;;;;4.18;2.60;;;;;;;10.62;79.32;96937.66;5045248;28;20496;-59
2022/11/09 01:38:30;;;;;;;6.30;2.67;;;;;;;10.63;79.31;96933.88;5046519;28;20473;-57
2022/11/09 01:40:57;;;;;;;7.82;2.92;;;;;;;10.62;79.47;96937.66;5044363;28;20473;-56
2022/11/09 01:43:24;;;;;;;6.05;2.55;;;;;;;10.49;80.04;96938.94;5029439;28;20050;-58
2022/11/09 01:46:00;;;;;;;6.50;2.85;;;;;;;10.44;80.51;96930.75;5026121;28;20055;-56
2022/11/09 01:48:42;;;;;;;9.57;3.05;;;;;;;10.43;80.54;96934.53;5029751;28;20088;-58
2022/11/09 01:51:16;;;;;;;5.65;2.88;;;;;;;10.34;81.30;96926.09;5045330;28;20407;-58
2022/11/09 01:53:46;;;;;;;5.47;2.70;;;;;;;10.46;80.39;96937.56;5046649;28;20137;-57
2022/11/09 01:56:16;;;;;;;5.68;2.80;;;;;;;10.54;79.83;96942.47;5044648;28;20075;-56
2022/11/09 01:58:49;;;;;;;6.82;2.72;;;;;;;10.61;79.60;96949.56;5044814;28;20103;-58
2022/11/09 02:01:16;;;;;;;4.85;2.53;;;;;;;10.64;79.56;96949.03;5045956;28;20094;-58
2022/11/09 02:03:54;;;;;;;6.22;3.22;;;;;;;10.56;80.40;96960.34;5044230;28;20055;-57
2022/11/09 02:06:26;;;;;;;6.43;3.00;;;;;;;10.48;81.09;96950.84;5045192;28;20068;-58
2022/11/09 02:08:58;;;;;;;6.18;3.25;;;;;;;10.38;82.00;96938.84;5045895;28;20052;-59
2022/11/09 02:11:26;;;;;;;5.53;2.67;;;;;;;10.37;81.87;96942.63;5043423;28;20166;-58
2022/11/09 02:13:59;;;;;;;5.72;2.95;;;;;;;10.35;82.40;96933.13;5025050;28;20069;-57
2022/11/09 02:16:27;;;;;;;6.22;2.63;;;;;;;10.36;82.76;96948.31;5024549;28;20111;-59
2022/11/09 02:18:57;;;;;;;5.40;3.10;;;;;;;10.42;82.85;96949.97;5030715;28;20036;-59
2022/11/09 02:21:27;;;;;;;5.65;2.75;;;;;;;10.41;83.75;96951.03;5043813;28;20056;-59
2022/11/09 02:23:53;;;;;;;5.47;2.58;;;;;;;10.37;84.94;96956.19;5046063;28;20041;-58
2022/11/09 02:26:29;;;;;;;5.88;3.20;;;;;;;10.47;84.22;96958.13;5044081;28;20056;-59
2022/11/09 02:28:58;;;;;;;5.05;2.97;;;;;;;10.46;84.50;96955.72;5044563;28;20056;-59
2022/11/09 02:31:31;;;;;;;5.22;2.33;;;;;;;10.52;84.95;96960.06;5044210;28;20045;-59
2022/11/09 02:34:18;;;;;;;6.20;2.95;;;;;;;10.47;86.28;96958.13;5044208;28;20047;-59
2022/11/09 02:36:46;;;;;;;3.88;2.38;;;;;;;10.54;87.52;96963.31;5044565;28;20061;-58
2022/11/09 02:39:19;;;;;;;;;;;;;;;10.29;91.60;96962.06;5045453;28;20049;-57
2022/11/09 02:42:08;;;;;;;5.90;2.88;;;;;;;10.00;97.32;96960.50;5044003;28;19920;-57
2022/11/09 02:44:44;;;;;;;6.13;3.25;;;;;;;9.81;98.68;96968.19;5044204;28;20044;-58
2022/11/09 02:47:10;;;;;;;6.50;3.47;;;;;;;9.60;100.00;96975.28;5044941;28;20071;-57
2022/11/09 02:49:37;;;;;;;6.70;3.38;;;;;;;9.29;100.00;96974.97;5046039;28;20069;-59
2022/11/09 02:52:04;;;;;;;6.18;3.55;;;;;;;9.22;100.00;96972.47;5039308;28;20102;-57
2022/11/09 02:54:30;;;;;;;7.05;3.80;;;;;;;9.41;100.00;96978.34;5025764;28;20124;-58
2022/11/09 02:56:57;;;;;;;6.00;3.65;;;;;;;9.30;100.00;96976.59;5044006;28;20095;-58
2022/11/09 02:59:25;;;;;;;6.28;3.72;;;;;;;9.11;100.00;96974.25;5043981;28;20063;-58
2022/11/09 03:01:51;;;;;;;11.60;4.18;;;;;;;9.04;100.00;96977.13;5041237;28;20057;-59
2022/11/09 03:04:19;;;;;;;5.97;3.55;;;;;;;9.05;100.00;96969.84;5044288;28;20722;-57
2022/11/09 03:06:45;;;;;;;8.30;4.60;;;;;;;9.16;100.00;96968.88;5045293;28;20045;-57
2022/11/09 03:09:15;;;;;;;7.82;4.10;;;;;;;9.20;100.00;96961.91;5048767;28;20160;-56
2022/11/09 03:11:42;;;;;;;5.93;3.97;;;;;;;9.24;100.00;96957.63;5044545;28;20034;-58
2022/11/09 03:14:11;;;;;;;6.05;3.92;;;;;;;9.41;100.00;96972.13;5028105;28;20046;-57
2022/11/09 03:16:44;;;;;;;8.15;3.63;;;;;;;9.47;100.00;96971.13;5048255;28;20469;-58
2022/11/09 03:19:16;;;;;;;6.30;3.72;;;;;;;9.47;100.00;96966.50;5041442;28;20412;-57
2022/11/09 03:21:45;;;;;;;7.65;3.30;;;;;;;9.40;100.00;96965.88;5027608;28;20049;-58
2022/11/09 03:24:11;;;;;;;6.10;3.75;;;;;;;9.40;100.00;96976.69;5027482;28;20686;-59
2022/11/09 03:26:39;;;;;;;6.10;3.60;;;;;;;9.38;100.00;96973.44;5027304;28;20436;-58
2022/11/09 03:29:05;;;;;;;7.80;3.28;;;;;;;9.36;100.00;96971.00;5027827;28;20045;-59
2022/11/09 03:31:32;;;;;;;6.80;3.70;;;;;;;9.41;100.00;96974.81;5026880;28;20037;-59
2022/11/09 03:34:02;;;;;;;5.97;3.42;;;;;;;9.44;100.00;96977.81;5027990;28;20512;-58
2022/11/09 03:36:28;;;;;;;6.85;3.42;;;;;;;9.44;100.00;96968.91;5027502;28;20045;-59
2022/11/09 03:38:55;;;;;;;6.95;3.33;;;;;;;9.41;100.00;96972.94;5028618;28;20495;-58
2022/11/09 03:41:22;;;;;;;5.63;2.97;;;;;;;9.39;100.00;96976.97;5043233;28;20560;-57
2022/11/09 03:43:48;;;;;;;5.40;3.40;;;;;;;9.39;100.00;96977.78;5025799;28;20704;-58
2022/11/09 03:46:15;;;;;;;7.38;3.40;;;;;;;9.34;100.00;96972.31;5028255;28;20124;-57
2022/11/09 03:48:41;;;;;;;7.97;4.18;;;;;;;9.32;100.00;96977.19;5030401;28;20068;-57
2022/11/09 03:51:08;;;;;;;7.70;4.28;;;;;;;9.31;100.00;96981.75;5044104;28;20033;-59
2022/11/09 03:53:34;;;;;;;6.72;3.55;;;;;;;9.34;100.00;96966.91;5047334;28;20040;-59
2022/11/09 03:56:01;;;;;;;5.93;4.18;;;;;;;9.33;100.00;96968.00;5048471;28;20123;-56
2022/11/09 03:58:27;;;;;;;6.97;3.95;;;;;;;9.31;100.00;96970.13;5048089;28;20476;-58
2022/11/09 04:00:53;;;;;;;5.68;3.72;;;;;;;9.29;100.00;96977.69;5047630;28;20044;-59
2022/11/09 04:03:20;;;;;;;6.55;4.05;;;;;;;9.22;100.00;96981.38;5045955;28;20069;-59
2022/11/09 04:05:47;;;;;;;7.38;4.05;;;;;;;9.16;100.00;96984.28;5047974;28;20075;-58
2022/11/09 04:08:13;;;;;;;6.03;4.00;;;;;;;9.18;100.00;96976.75;5047824;28;20124;-57
2022/11/09 04:10:40;;;;;;;6.32;4.20;;;;;;;9.08;100.00;96994.47;5047103;28;20715;-56
2022/11/09 04:13:06;;;;;;;8.02;3.95;;;;;;;8.95;100.00;96997.53;5048461;28;20048;-58
2022/11/09 04:15:32;;;;;;;7.43;4.85;;;;;;;8.85;100.00;97017.13;5047768;28;20045;-58
2022/11/09 04:18:01;;;;;;;8.23;4.72;;;;;;;8.80;100.00;97019.72;5047766;28;20049;-56
2022/11/09 04:20:29;;;;;;;8.68;4.82;;;;;;;8.73;100.00;97011.03;5039602;28;20044;-59
2022/11/09 04:22:58;;;;;;;9.10;4.97;;;;;;;8.69;100.00;97021.47;5047061;28;20051;-58
2022/11/09 04:25:26;;;;;;;8.52;5.10;;;;;;;8.77;100.00;97025.66;5048003;28;20051;-59
2022/11/09 04:27:55;;;;;;;7.20;4.40;;;;;;;8.90;100.00;97019.06;5047592;28;20132;-58
2022/11/09 04:30:22;;;;;;;7.50;4.57;;;;;;;8.97;100.00;97022.41;5047538;28;20044;-57
2022/11/09 04:32:48;;;;;;;8.20;4.40;;;;;;;9.01;100.00;97014.59;5047357;28;20068;-58
2022/11/09 04:35:15;;;;;;;11.02;4.72;;;;;;;9.00;100.00;97021.09;5047518;28;20044;-58
2022/11/09 04:37:41;;;;;;;9.52;4.80;;;;;;;9.02;100.00;97024.34;5047475;28;20065;-58
2022/11/09 04:40:09;;;;;;;9.35;4.65;;;;;;;9.00;100.00;97016.50;5047218;28;20459;-59
2022/11/09 04:42:35;;;;;;;7.38;4.47;;;;;;;9.05;100.00;97013.03;5047213;28;20037;-59
2022/11/09 04:45:02;;;;;;;9.88;5.20;;;;;;;9.10;100.00;97005.00;5046942;28;20045;-59
2022/11/09 04:47:28;;;;;;;7.55;4.43;;;;;;;9.21;100.00;97008.63;5047393;28;20103;-58
2022/11/09 04:49:55;;;;;;;11.40;5.38;;;;;;;9.26;100.00;97010.59;5048023;28;20044;-59
2022/11/09 04:52:21;;;;;;;8.23;4.70;;;;;;;9.29;100.00;97010.09;5046958;28;20401;-59
2022/11/09 04:54:47;;;;;;;10.52;4.95;;;;;;;9.24;100.00;97002.75;5047397;28;20072;-59
2022/11/09 04:57:14;;;;;;;6.80;4.25;;;;;;;9.20;100.00;97009.72;5046946;28;20552;-59
2022/11/09 04:59:40;;;;;;;8.32;5.10;;;;;;;9.20;100.00;97002.44;5047133;28;20114;-58
2022/11/09 05:02:07;;;;;;;9.02;4.70;;;;;;;9.18;100.00;97007.25;5045924;28;20041;-58
2022/11/09 05:04:33;;;;;;;8.32;4.40;;;;;;;9.09;100.00;97001.50;5046020;28;20132;-58
2022/11/09 05:07:00;;;;;;;7.38;4.20;;;;;;;9.04;100.00;96985.25;5047155;28;20068;-59
2022/11/09 05:09:26;;;;;;;7.63;4.75;;;;;;;9.02;100.00;96989.22;5046463;28;20373;-59
2022/11/09 05:11:53;;;;;;;6.65;4.40;;;;;;;8.95;100.00;96992.94;5046647;28;20068;-58
2022/11/09 05:14:19;;;;;;;11.25;5.35;;;;;;;9.04;100.00;96992.50;5046842;28;20488;-58
2022/11/09 05:16:45;;;;;;;9.93;5.25;;;;;;;9.11;100.00;97001.25;5047011;28;20076;-59
2022/11/09 05:19:12;;;;;;;11.10;5.80;;;;;;;9.07;100.00;96998.22;5040291;28;20041;-58
2022/11/09 05:21:38;;;;;;;6.55;4.47;;;;;;;9.08;100.00;96996.34;5045262;28;20140;-59
2022/11/09 05:24:05;;;;;;;9.88;5.00;;;;;;;9.13;100.00;97001.00;5046092;28;20551;-57
2022/11/09 05:26:35;;;;;;;9.23;4.03;;;;;;;9.17;100.00;96991.31;5046963;28;20730;-58
2022/11/09 05:29:05;;;;;;;6.65;4.13;;;;;;;9.21;100.00;96989.72;5046406;28;20048;-59
2022/11/09 05:31:32;;;;;;;7.93;4.30;;;;;;;9.18;100.00;96990.25;5045787;28;20120;-58
2022/11/09 05:33:59;;;;;;;7.20;4.28;;;;;;;9.10;100.00;96989.63;5046741;28;20051;-58
2022/11/09 05:36:27;;;;;;;7.15;4.20;;;;;;;9.13;100.00;96988.28;5046178;28;20048;-59
2022/11/09 05:38:53;;;;;;;7.57;4.60;;;;;;;9.23;100.00;96993.00;5046195;28;20120;-58
2022/11/09 05:41:20;;;;;;;6.88;4.00;;;;;;;9.19;100.00;96981.91;5044071;28;20060;-59
2022/11/09 05:43:46;;;;;;;6.63;4.30;;;;;;;9.20;100.00;96982.69;5028629;28;20049;-58
2022/11/09 05:46:14;;;;;;;6.43;4.35;;;;;;;9.24;100.00;96979.25;5026586;28;20063;-59
2022/11/09 05:48:41;;;;;;;8.15;4.55;;;;;;;9.28;100.00;96986.88;5030267;28;20072;-59
2022/11/09 05:51:10;;;;;;;7.78;4.15;;;;;;;9.29;100.00;96981.19;5045109;28;20131;-58
2022/11/09 05:53:38;;;;;;;6.25;4.18;;;;;;;9.31;100.00;96981.75;5045826;28;20459;-58
2022/11/09 05:56:11;;;;;;;6.55;4.13;;;;;;;9.30;100.00;96974.72;5046491;28;20512;-58
2022/11/09 05:58:38;;;;;;;9.65;5.47;;;;;;;9.36;100.00;96976.41;5045931;28;20451;-59
2022/11/09 06:01:07;;;;;;;11.35;6.72;;;;;;;9.40;100.00;96984.81;5044940;28;20514;-59
2022/11/09 06:03:34;;;;;;;9.77;7.32;;;;;;;9.46;100.00;96982.97;5046150;28;20037;-59
2022/11/09 06:06:02;;;;;;;8.75;6.03;;;;;;;9.42;100.00;96996.19;5045914;28;20127;-59
2022/11/09 06:08:34;;;;;;;7.38;5.38;;;;;;;9.38;100.00;97003.16;5045752;28;20037;-59
2022/11/09 06:11:06;;;;;;;9.40;4.32;;;;;;;9.32;100.00;97005.00;5041673;28;20561;-59
2022/11/09 06:13:33;;;;;;;6.78;3.83;;;;;;;9.35;100.00;97015.31;5046122;28;20043;-58
2022/11/09 06:16:01;;;;;;;7.75;4.45;;;;;;;9.43;100.00;97005.13;5045861;28;20091;-59
2022/11/09 06:18:30;;;;;;;10.15;4.60;;;;;;;9.45;100.00;97006.50;5046656;28;20037;-59
2022/11/09 06:21:00;;;;;;;7.93;4.75;;;;;;;9.50;100.00;96997.63;5044539;28;20083;-59
2022/11/09 06:23:28;;;;;;;9.57;4.65;;;;;;;9.46;100.00;96994.63;5045511;28;20056;-59
2022/11/09 06:26:06;;;;;;;6.78;4.35;;;;;;;9.46;100.00;96991.91;5045857;28;20079;-59
2022/11/09 06:28:33;;;;;;;6.55;4.47;;;;;;;9.49;100.00;96987.88;5045652;28;20548;-58
2022/11/09 06:31:01;;;;;;;8.82;4.80;;;;;;;9.45;100.00;96994.88;5045609;28;20097;-59
2022/11/09 06:33:32;;;;;;;8.15;3.95;;;;;;;9.49;100.00;96996.00;5045838;28;20576;-59
2022/11/09 06:35:59;;;;;;;7.68;3.78;;;;;;;9.53;100.00;96991.72;5045825;28;20115;-59
2022/11/09 06:38:26;;;;;;;6.05;3.72;;;;;;;9.57;100.00;96995.53;5044333;28;20055;-58
2022/11/09 06:40:54;;;;;;;8.73;3.80;;;;;;;9.57;100.00;97002.81;5045376;28;20048;-58
2022/11/09 06:43:22;;;;;;;8.10;3.65;;;;;;;9.57;100.00;97014.47;5049844;28;20080;-59
2022/11/09 06:45:49;;;;;;;6.78;3.42;;;;;;;9.66;100.00;97017.50;5049778;28;20128;-57
2022/11/09 06:48:16;;;;;;;7.43;3.83;;;;;;;9.82;100.00;97036.59;5050259;28;20123;-59
2022/11/09 06:50:43;;;;;;;8.20;3.40;;;;;;;9.93;100.00;97061.84;5029858;28;20041;-59
2022/11/09 06:53:11;;;;;;;6.57;3.70;;;;;;;9.90;100.00;97103.75;5029673;28;20037;-59
2022/11/09 06:55:38;;;;;;;6.93;3.85;;;;;;;9.73;100.00;97117.38;5029685;28;20077;-59
2022/11/09 06:58:10;;;;;;;5.32;3.40;;;;;;;9.56;100.00;97120.13;5030919;28;20079;-59
2022/11/09 07:00:37;;;;;;;6.22;3.80;;;;;;;9.51;100.00;97107.34;5049252;28;20045;-58
2022/11/09 07:03:04;;;;;;;6.95;4.13;;;;;;;9.47;100.00;97115.16;5051989;28;20049;-58
2022/11/09 07:05:30;;;;;;;6.57;4.03;;;;;;;9.41;100.00;97112.63;5056963;28;20087;-58
2022/11/09 07:07:57;;;;;;;6.57;4.07;;;;;;;9.47;100.00;97123.25;5040579;28;20045;-59
2022/11/09 07:10:23;;;;;;;6.30;4.40;;;;;;;9.44;100.00;97123.75;5052294;28;20067;-59
2022/11/09 07:12:50;;;;;;;6.32;4.03;;;;;;;9.41;100.00;97126.97;5060323;28;20044;-59
2022/11/09 07:15:17;;;;;;;7.03;4.45;;;;;;;9.38;100.00;97127.47;5046754;28;20051;-59
2022/11/09 07:17:43;;;;;;;6.25;4.30;;;;;;;9.35;100.00;97131.50;5047306;28;20468;-59
2022/11/09 07:20:10;;;;;;;7.53;4.35;;;;;;;9.41;100.00;97128.84;5037305;28;20057;-59
2022/11/09 07:22:38;;;;;;;8.27;5.07;;;;;;;9.45;100.00;97125.41;5041093;28;20051;-60
2022/11/09 07:25:10;;;;;;;6.63;4.78;;;;;;;9.49;100.00;97121.13;5055727;28;20697;-60
2022/11/09 07:27:36;;;;;;;6.57;4.28;;;;;;;9.52;100.00;97137.91;5051336;28;20612;-61
2022/11/09 07:30:03;;;;;;;7.55;4.38;;;;;;;9.53;100.00;97126.84;5046628;28;20045;-60
2022/11/09 07:32:37;;;;;;;10.18;4.88;;;;;;;9.56;100.00;97123.66;5048315;28;20068;-60
2022/11/09 07:35:25;;;;;;;7.65;4.30;;;;;;;9.57;100.00;97125.28;5051141;28;20578;-59
2022/11/09 07:37:52;;;;;;;7.57;4.82;;;;;;;9.58;100.00;97121.50;5052496;28;20160;-60
2022/11/09 07:40:19;;;;;;;7.75;4.50;;;;;;;9.57;100.00;97119.03;5052834;28;20051;-60
2022/11/09 07:42:45;;;;;;;7.72;4.57;;;;;;;9.54;100.00;97133.88;5053528;28;20140;-60
2022/11/09 07:45:12;;;;;;;8.43;4.90;;;;;;;9.55;100.00;97134.72;5065284;28;20072;-60
2022/11/09 07:47:38;;;;;;;7.53;4.57;;;;;;;9.63;100.00;97134.28;5054833;28;20055;-60
2022/11/09 07:50:05;;;;;;;8.70;4.70;;;;;;;9.59;100.00;97127.72;5050423;28;20068;-60
2022/11/09 07:52:32;;;;;;;7.70;4.50;;;;;;;9.60;100.00;97123.97;5046503;28;20068;-60
2022/11/09 07:54:58;;;;;;;9.40;5.10;;;;;;;9.57;100.00;97117.16;5048138;28;20116;-60
2022/11/09 07:57:24;;;;;;;8.05;4.43;;;;;;;9.58;100.00;97118.00;5048459;28;20040;-59
2022/11/09 07:59:52;;;;;;;8.52;5.50;;;;;;;9.55;100.00;97126.59;5048180;28;20464;-60
2022/11/09 08:02:18;;;;;;;7.10;5.20;;;;;;;9.56;100.00;97133.63;5047308;28;20045;-60
2022/11/09 08:04:45;;;;;;;7.07;5.22;;;;;;;9.55;100.00;97132.00;5048201;28;20053;-60
2022/11/09 08:07:11;;;;;;;7.35;5.15;;;;;;;9.64;100.00;97127.78;5048065;28;20056;-60
2022/11/09 08:09:38;;;;;;;8.05;4.93;;;;;;;9.67;100.00;97119.19;5048349;28;20045;-59
2022/11/09 08:12:05;;;;;;;7.50;4.80;;;;;;;9.74;100.00;97111.69;5047816;28;20144;-60
2022/11/09 08:14:32;;;;;;;7.80;4.85;;;;;;;9.74;100.00;97098.16;5047630;28;20107;-58
2022/11/09 08:16:58;;;;;;;5.03;2.60;;;;;;;9.76;100.00;97104.16;5048111;28;20048;-59
2022/11/09 08:19:25;;;;;;;3.88;2.28;;;;;;;9.86;100.00;97102.63;5039542;28;20073;-58
2022/11/09 08:21:56;;;;;;;6.45;2.75;;;;;;;9.77;100.00;97102.28;5047425;28;20243;-59
2022/11/09 08:24:22;;;;;;;6.18;2.55;;;;;;;9.78;100.00;97103.91;5047773;28;20128;-59
2022/11/09 08:26:49;;;;;;;11.20;3.53;;;;;;;9.78;100.00;97103.06;5047723;28;20048;-60
2022/11/09 08:29:15;;;;;;;6.13;2.72;;;;;;;9.87;100.00;97101.53;5044285;28;20045;-59
2022/11/09 08:31:42;;;;;;;4.97;3.05;;;;;;;9.87;100.00;97101.53;5047035;28;20044;-59
2022/11/09 08:34:13;;;;;;;6.63;3.70;;;;;;;9.98;100.00;97092.47;5047648;28;20041;-59
2022/11/09 08:36:40;;;;;;;5.55;3.70;;;;;;;9.95;100.00;97092.97;5047505;28;20116;-60
2022/11/09 08:39:07;;;;;;;8.38;4.10;;;;;;;9.94;100.00;97096.75;5047723;28;20131;-60
2022/11/09 08:41:33;;;;;;;5.35;3.63;;;;;;;10.00;100.00;97097.63;5046723;28;20045;-59
2022/11/09 08:44:00;;;;;;;5.63;3.40;;;;;;;10.05;100.00;97107.66;5047371;28;20756;-60
2022/11/09 08:46:26;;;;;;;7.88;3.33;;;;;;;10.00;100.00;97101.13;5047753;28;20519;-59
2022/11/09 08:48:53;;;;;;;5.65;3.53;;;;;;;10.00;100.00;97097.63;5047802;28;20700;-60
2022/11/09 08:51:19;;;;;;;6.20;3.35;;;;;;;10.02;100.00;97109.00;5046846;28;20106;-60
2022/11/09 08:53:45;;;;;;;6.13;3.08;;;;;;;10.08;100.00;97102.59;5047101;28;20072;-60
2022/11/09 08:56:17;;;;;;;5.43;3.05;;;;;;;10.16;100.00;97109.41;5047267;28;20470;-59
2022/11/09 08:58:44;;;;;;;6.72;3.00;;;;;;;10.25;100.00;97112.50;5047071;28;20068;-60
2022/11/09 09:01:11;;;;;;;6.43;3.60;;;;;;;10.26;100.00;97114.13;5046887;28;20049;-60
2022/11/09 09:03:42;;;;;;;6.53;3.17;;;;;;;10.20;100.00;97109.72;5046647;28;20373;-59
2022/11/09 09:06:09;;;;;;;4.85;2.35;;;;;;;10.27;100.00;97103.03;5046455;28;20101;-59
2022/11/09 09:08:35;;;;;;;4.72;2.40;;;;;;;10.31;100.00;97102.53;5046947;28;20072;-60
2022/11/09 09:11:03;;;;;;;5.63;2.75;;;;;;;10.28;100.00;97107.38;5042778;28;20131;-59
2022/11/09 09:13:30;;;;;;;4.00;1.75;;;;;;;10.33;100.00;97103.06;5039599;28;20041;-59
2022/11/09 09:15:57;;;;;;;4.82;2.50;;;;;;;10.44;100.00;97117.50;5058604;28;20683;-60
2022/11/09 09:18:24;;;;;;;4.30;2.40;;;;;;;10.53;100.00;97110.59;5056814;28;20508;-60
2022/11/09 09:20:50;;;;;;;4.22;2.05;;;;;;;10.61;100.00;97110.09;5038292;28;20120;-60
2022/11/09 09:23:17;;;;;;;4.70;2.10;;;;;;;10.62;100.00;97117.16;5055851;28;20047;-60
2022/11/09 09:25:43;;;;;;;5.20;2.38;;;;;;;10.63;100.00;97117.97;5060067;28;20091;-60
2022/11/09 09:28:10;;;;;;;3.97;2.22;;;;;;;10.68;100.00;97115.31;5061466;28;20078;-60
2022/11/09 09:30:36;;;;;;;3.97;2.30;;;;;;;10.70;100.00;97124.00;5050721;28;20112;-60
2022/11/09 09:33:03;;;;;;;4.32;2.33;;;;;;;10.71;100.00;97122.09;5063157;28;20603;-59
2022/11/09 09:35:29;;;;;;;3.55;1.90;;;;;;;10.74;100.00;97119.69;5050763;28;20120;-59
2022/11/09 09:37:57;;;;;;;4.25;2.50;;;;;;;10.80;100.00;97124.06;5064245;28;20048;-59
2022/11/09 09:40:35;;;;;;;4.35;2.30;;;;;;;10.84;100.00;97116.22;5040947;28;20567;-58
2022/11/09 09:43:02;;;;;;;3.60;2.00;;;;;;;10.91;100.00;97114.13;5043064;28;20479;-59
2022/11/09 09:45:33;;;;;;;4.78;1.73;;;;;;;10.96;100.00;97115.22;5045644;28;20128;-59
2022/11/09 09:48:37;;;;;;;4.65;1.92;;;;;;;11.03;100.00;97132.09;5055872;28;20048;-59
2022/11/09 09:51:17;;;;;;;3.00;1.58;;;;;;;11.13;100.00;97129.44;5033689;28;20049;-57
2022/11/09 09:53:48;;;;;;;3.42;1.70;;;;;;;11.22;100.00;97118.09;5057962;28;20087;-60
2022/11/09 09:56:25;;;;;;;4.22;1.42;;;;;;;11.28;100.00;97117.84;5044288;28;20060;-59
2022/11/09 09:59:14;;;;;;;4.15;1.90;;;;;;;11.37;100.00;97126.31;5031901;28;20190;-60
2022/11/09 10:01:43;;;;;;;5.35;1.77;;;;;;;11.49;100.00;97125.28;5043858;28;20061;-60
2022/11/09 10:04:18;;;;;;;2.78;1.50;;;;;;;11.46;100.00;97121.19;5054517;28;20499;-59
2022/11/09 10:07:00;;;;;;;3.53;1.80;;;;;;;11.47;100.00;97133.69;5064069;28;20056;-59
2022/11/09 10:09:35;;;;;;;5.95;2.00;;;;;;;11.62;100.00;97134.84;5054195;28;20079;-58
2022/11/09 10:12:22;;;;;;;5.40;2.30;;;;;;;11.63;100.00;97122.91;5043758;28;20123;-60
2022/11/09 10:15:14;;;;;;;5.82;2.75;;;;;;;11.73;100.00;97119.41;5043910;28;20052;-60
2022/11/09 10:18:05;;;;;;;5.75;2.00;;;;;;;11.76;100.00;97127.03;5044554;28;20529;-60
2022/11/09 10:20:54;;;;;;;4.00;1.98;;;;;;;11.74;100.00;97121.03;5033092;28;20060;-60
2022/11/09 10:23:53;;;;;;;3.50;1.70;;;;;;;11.90;100.00;97121.94;5030018;28;20512;-57
2022/11/09 10:26:35;;;;;;;3.38;1.77;;;;;;;11.81;100.00;97121.63;5043741;28;20080;-60
2022/11/09 10:29:15;;;;;;;4.85;1.75;;;;;;;11.76;100.00;97114.25;5044203;28;20047;-60
2022/11/09 10:31:45;;;;;;;5.05;2.25;;;;;;;11.81;100.00;97108.06;5054594;28;20053;-60
2022/11/09 10:34:36;;;;;;;5.53;2.20;;;;;;;11.92;100.00;97111.63;5044453;28;20041;-59
2022/11/09 10:37:02;;;;;;;6.00;2.47;;;;;;;12.00;100.00;97111.09;5043671;28;20044;-60
2022/11/09 10:39:38;;;;;;;5.25;2.25;;;;;;;12.07;100.00;97106.25;5057836;28;20053;-60
2022/11/09 10:42:23;;;;;;;4.30;2.53;;;;;;;12.18;100.00;97115.25;5042958;28;20142;-60
2022/11/09 10:45:27;;;;;;;7.05;2.72;;;;;;;12.22;100.00;97107.38;5032395;28;20504;-59
2022/11/09 10:48:13;;;;;;;4.70;3.08;;;;;;;12.38;100.00;97100.03;5043861;28;20110;-59
2022/11/09 10:50:58;;;;;;;4.28;2.30;;;;;;;12.48;100.00;97091.91;5032209;28;20727;-58
2022/11/09 10:53:43;;;;;;;5.72;2.97;;;;;;;12.30;100.00;97101.41;5062991;28;20051;-59
2022/11/09 10:56:28;;;;;;;5.65;3.00;;;;;;;12.27;100.00;97099.22;5054951;28;20052;-59
2022/11/09 10:59:34;;;;;;;6.72;3.00;;;;;;;12.30;100.00;97087.81;5036596;28;20075;-60
2022/11/09 11:02:27;;;;;;;5.57;3.58;;;;;;;12.30;100.00;97084.28;5042673;28;20060;-59
2022/11/09 11:05:15;;;;;;;5.40;3.33;;;;;;;12.36;100.00;97086.72;5043418;28;20746;-58
2022/11/09 11:08:19;;;;;;;6.30;3.70;;;;;;;12.41;100.00;97079.69;5033518;28;20072;-59
2022/11/09 11:11:13;;;;;;;5.55;3.05;;;;;;;12.59;100.00;97083.75;5054549;28;20060;-60
2022/11/09 11:14:29;;;;;;;5.20;3.45;;;;;;;12.63;100.00;97086.75;5038381;28;20052;-60
2022/11/09 11:17:25;;;;;;;6.85;3.13;;;;;;;12.52;100.00;97081.31;5063424;28;20055;-59
2022/11/09 11:20:22;;;;;;;5.72;3.42;;;;;;;12.64;100.00;97074.81;5037526;28;20064;-61
2022/11/09 11:23:07;;;;;;;5.35;3.13;;;;;;;12.75;100.00;97070.97;5043840;28;20052;-60
2022/11/09 11:26:12;;;;;;;6.78;3.28;;;;;;;12.78;100.00;97072.34;5043500;28;20119;-60
2022/11/09 11:29:01;;;;;;;6.45;3.42;;;;;;;12.67;100.00;97064.19;5032040;28;20052;-60
2022/11/09 11:31:46;;;;;;;5.10;3.22;;;;;;;12.67;100.00;97068.81;5046677;28;20186;-60
2022/11/09 11:34:34;;;;;;;6.03;3.38;;;;;;;12.64;100.00;97072.09;5049061;28;20064;-60
2022/11/09 11:38:05;;;;;;;8.25;3.50;;;;;;;12.71;100.00;97076.16;5048927;28;20448;-60
2022/11/09 11:41:02;;;;;;;6.95;3.75;;;;;;;12.70;100.00;97081.84;5048255;28;20071;-60
2022/11/09 11:44:07;;;;;;;4.78;2.97;;;;;;;12.77;100.00;97074.25;5040334;28;20048;-60
2022/11/09 11:47:17;;;;;;;5.45;3.50;;;;;;;12.64;100.00;97069.38;5036973;28;20534;-60
2022/11/09 11:50:15;;;;;;;4.78;2.90;;;;;;;12.75;100.00;97066.38;5048294;28;20434;-59